sensor_id;sensor_type;location;lat;lon;timestamp;P1;durP1;ratioP1;P2;durP2;ratioP2
10701;SDS011;5402;50.004;8.246;2023-01-26T00:00:02;17.60;;;8.47;;
10701;SDS011;5402;50.004;8.246;2023-01-26T00:02:29;20.00;;;9.50;;
10701;SDS011;5402;50.004;8.246;2023-01-26T00:04:56;15.93;;;9.07;;
10701;SDS011;5402;50.004;8.246;2023-01-26T00:07:23;20.57;;;8.90;;
10701;SDS011;5402;50.004;8.246;2023-01-26T00:09:49;21.97;;;8.87;;
10701;SDS011;5402;50.004;8.246;2023-01-26T00:12:17;18.63;;;9.03;;
10701;SDS011;5402;50.004;8.246;2023-01-26T00:14:44;20.97;;;8.97;;
10701;SDS011;5402;50.004;8.246;2023-01-26T00:17:17;19.33;;;8.73;;
10701;SDS011;5402;50.004;8.246;2023-01-26T00:19:52;14.47;;;8.03;;
10701;SDS011;5402;50.004;8.246;2023-01-26T00:22:19;18.97;;;8.50;;
10701;SDS011;5402;50.004;8.246;2023-01-26T00:24:46;17.83;;;8.87;;
10701;SDS011;5402;50.004;8.246;2023-01-26T00:27:12;17.23;;;7.57;;
10701;SDS011;5402;50.004;8.246;2023-01-26T00:29:40;19.90;;;9.07;;
10701;SDS011;5402;50.004;8.246;2023-01-26T00:32:07;17.53;;;8.37;;
10701;SDS011;5402;50.004;8.246;2023-01-26T00:34:34;14.57;;;7.97;;
10701;SDS011;5402;50.004;8.246;2023-01-26T00:37:01;16.13;;;7.67;;
10701;SDS011;5402;50.004;8.246;2023-01-26T00:39:27;18.73;;;8.57;;
10701;SDS011;5402;50.004;8.246;2023-01-26T00:41:54;15.87;;;7.53;;
10701;SDS011;5402;50.004;8.246;2023-01-26T00:44:35;16.13;;;7.83;;
10701;SDS011;5402;50.004;8.246;2023-01-26T00:47:05;18.07;;;7.63;;
10701;SDS011;5402;50.004;8.246;2023-01-26T00:49:32;16.27;;;7.07;;
10701;SDS011;5402;50.004;8.246;2023-01-26T00:52:00;18.60;;;8.47;;
10701;SDS011;5402;50.004;8.246;2023-01-26T00:54:27;16.40;;;7.63;;
10701;SDS011;5402;50.004;8.246;2023-01-26T00:56:54;17.97;;;8.23;;
10701;SDS011;5402;50.004;8.246;2023-01-26T00:59:21;12.70;;;6.47;;
10701;SDS011;5402;50.004;8.246;2023-01-26T01:01:49;14.60;;;7.30;;
10701;SDS011;5402;50.004;8.246;2023-01-26T01:04:17;13.67;;;7.10;;
10701;SDS011;5402;50.004;8.246;2023-01-26T01:06:44;14.77;;;7.47;;
10701;SDS011;5402;50.004;8.246;2023-01-26T01:09:11;14.17;;;7.20;;
10701;SDS011;5402;50.004;8.246;2023-01-26T01:11:38;15.47;;;7.67;;
10701;SDS011;5402;50.004;8.246;2023-01-26T01:14:07;15.43;;;7.03;;
10701;SDS011;5402;50.004;8.246;2023-01-26T01:16:34;10.87;;;5.53;;
10701;SDS011;5402;50.004;8.246;2023-01-26T01:19:01;11.10;;;5.57;;
10701;SDS011;5402;50.004;8.246;2023-01-26T01:21:29;9.23;;;5.17;;
10701;SDS011;5402;50.004;8.246;2023-01-26T01:23:57;9.67;;;5.03;;
10701;SDS011;5402;50.004;8.246;2023-01-26T01:26:23;9.70;;;5.10;;
10701;SDS011;5402;50.004;8.246;2023-01-26T01:28:52;9.77;;;5.10;;
10701;SDS011;5402;50.004;8.246;2023-01-26T01:31:19;7.70;;;4.60;;
10701;SDS011;5402;50.004;8.246;2023-01-26T01:33:46;8.43;;;4.93;;
10701;SDS011;5402;50.004;8.246;2023-01-26T01:36:15;8.07;;;4.70;;
10701;SDS011;5402;50.004;8.246;2023-01-26T01:38:44;4.90;;;3.47;;
10701;SDS011;5402;50.004;8.246;2023-01-26T01:41:12;7.30;;;3.70;;
10701;SDS011;5402;50.004;8.246;2023-01-26T01:43:40;5.93;;;3.47;;
10701;SDS011;5402;50.004;8.246;2023-01-26T01:46:10;6.13;;;3.50;;
10701;SDS011;5402;50.004;8.246;2023-01-26T01:48:44;6.53;;;3.87;;
10701;SDS011;5402;50.004;8.246;2023-01-26T01:51:17;5.23;;;3.40;;
10701;SDS011;5402;50.004;8.246;2023-01-26T01:53:49;7.20;;;3.40;;
10701;SDS011;5402;50.004;8.246;2023-01-26T01:56:18;5.57;;;3.60;;
10701;SDS011;5402;50.004;8.246;2023-01-26T01:58:50;6.20;;;2.90;;
10701;SDS011;5402;50.004;8.246;2023-01-26T02:01:19;6.63;;;3.30;;
10701;SDS011;5402;50.004;8.246;2023-01-26T02:03:46;5.50;;;3.23;;
10701;SDS011;5402;50.004;8.246;2023-01-26T02:06:18;6.07;;;3.40;;
10701;SDS011;5402;50.004;8.246;2023-01-26T02:08:50;6.70;;;3.83;;
10701;SDS011;5402;50.004;8.246;2023-01-26T02:11:19;5.57;;;3.57;;
10701;SDS011;5402;50.004;8.246;2023-01-26T02:13:50;7.00;;;3.77;;
10701;SDS011;5402;50.004;8.246;2023-01-26T02:16:17;6.13;;;3.33;;
10701;SDS011;5402;50.004;8.246;2023-01-26T02:18:45;5.73;;;3.40;;
10701;SDS011;5402;50.004;8.246;2023-01-26T02:21:13;6.70;;;3.50;;
10701;SDS011;5402;50.004;8.246;2023-01-26T02:23:48;5.10;;;3.20;;
10701;SDS011;5402;50.004;8.246;2023-01-26T02:26:26;3.90;;;2.90;;
10701;SDS011;5402;50.004;8.246;2023-01-26T02:28:54;5.47;;;3.47;;
10701;SDS011;5402;50.004;8.246;2023-01-26T02:31:21;4.77;;;3.13;;
10701;SDS011;5402;50.004;8.246;2023-01-26T02:33:49;5.40;;;3.07;;
10701;SDS011;5402;50.004;8.246;2023-01-26T02:36:17;4.07;;;2.53;;
10701;SDS011;5402;50.004;8.246;2023-01-26T02:38:47;5.33;;;3.20;;
10701;SDS011;5402;50.004;8.246;2023-01-26T02:41:18;3.70;;;2.53;;
10701;SDS011;5402;50.004;8.246;2023-01-26T02:44:00;4.63;;;3.00;;
10701;SDS011;5402;50.004;8.246;2023-01-26T02:46:28;5.60;;;3.50;;
10701;SDS011;5402;50.004;8.246;2023-01-26T02:48:55;4.83;;;3.43;;
10701;SDS011;5402;50.004;8.246;2023-01-26T02:51:39;5.53;;;2.90;;
10701;SDS011;5402;50.004;8.246;2023-01-26T02:54:06;4.90;;;3.10;;
10701;SDS011;5402;50.004;8.246;2023-01-26T02:56:33;4.73;;;3.30;;
10701;SDS011;5402;50.004;8.246;2023-01-26T02:59:05;4.67;;;3.20;;
10701;SDS011;5402;50.004;8.246;2023-01-26T03:01:31;6.47;;;3.13;;
10701;SDS011;5402;50.004;8.246;2023-01-26T03:03:58;4.70;;;2.90;;
10701;SDS011;5402;50.004;8.246;2023-01-26T03:06:25;4.67;;;2.60;;
10701;SDS011;5402;50.004;8.246;2023-01-26T03:08:51;3.87;;;2.33;;
10701;SDS011;5402;50.004;8.246;2023-01-26T03:11:18;4.60;;;2.83;;
10701;SDS011;5402;50.004;8.246;2023-01-26T03:13:45;4.47;;;2.77;;
10701;SDS011;5402;50.004;8.246;2023-01-26T03:16:13;4.50;;;3.10;;
10701;SDS011;5402;50.004;8.246;2023-01-26T03:18:42;4.23;;;2.57;;
10701;SDS011;5402;50.004;8.246;2023-01-26T03:21:26;4.03;;;2.53;;
10701;SDS011;5402;50.004;8.246;2023-01-26T03:24:11;2.63;;;2.27;;
10701;SDS011;5402;50.004;8.246;2023-01-26T03:26:56;4.27;;;2.70;;
10701;SDS011;5402;50.004;8.246;2023-01-26T03:29:40;3.30;;;2.33;;
10701;SDS011;5402;50.004;8.246;2023-01-26T03:32:08;4.87;;;3.00;;
10701;SDS011;5402;50.004;8.246;2023-01-26T03:34:35;6.07;;;3.23;;
10701;SDS011;5402;50.004;8.246;2023-01-26T03:37:01;5.63;;;3.13;;
10701;SDS011;5402;50.004;8.246;2023-01-26T03:39:29;4.80;;;3.00;;
10701;SDS011;5402;50.004;8.246;2023-01-26T03:42:13;4.77;;;3.13;;
10701;SDS011;5402;50.004;8.246;2023-01-26T03:44:57;6.37;;;3.50;;
10701;SDS011;5402;50.004;8.246;2023-01-26T03:47:42;4.80;;;3.03;;
10701;SDS011;5402;50.004;8.246;2023-01-26T03:50:26;5.57;;;3.30;;
10701;SDS011;5402;50.004;8.246;2023-01-26T03:53:12;5.33;;;3.30;;
10701;SDS011;5402;50.004;8.246;2023-01-26T03:55:57;5.53;;;3.50;;
10701;SDS011;5402;50.004;8.246;2023-01-26T03:58:43;5.80;;;3.73;;
10701;SDS011;5402;50.004;8.246;2023-01-26T04:01:10;6.33;;;3.97;;
10701;SDS011;5402;50.004;8.246;2023-01-26T04:03:45;6.53;;;3.87;;
10701;SDS011;5402;50.004;8.246;2023-01-26T04:06:33;5.60;;;3.33;;
10701;SDS011;5402;50.004;8.246;2023-01-26T04:09:19;6.87;;;3.60;;
10701;SDS011;5402;50.004;8.246;2023-01-26T04:11:46;6.10;;;3.60;;
10701;SDS011;5402;50.004;8.246;2023-01-26T04:14:14;7.83;;;4.00;;
10701;SDS011;5402;50.004;8.246;2023-01-26T04:16:59;6.33;;;3.73;;
10701;SDS011;5402;50.004;8.246;2023-01-26T04:19:46;5.93;;;3.93;;
10701;SDS011;5402;50.004;8.246;2023-01-26T04:22:30;5.80;;;4.00;;
10701;SDS011;5402;50.004;8.246;2023-01-26T04:25:07;6.90;;;4.43;;
10701;SDS011;5402;50.004;8.246;2023-01-26T04:27:35;6.13;;;4.27;;
10701;SDS011;5402;50.004;8.246;2023-01-26T04:30:02;7.70;;;4.23;;
10701;SDS011;5402;50.004;8.246;2023-01-26T04:32:29;8.20;;;4.10;;
10701;SDS011;5402;50.004;8.246;2023-01-26T04:34:57;7.43;;;4.10;;
10701;SDS011;5402;50.004;8.246;2023-01-26T04:37:24;7.73;;;4.60;;
10701;SDS011;5402;50.004;8.246;2023-01-26T04:39:51;8.53;;;4.50;;
10701;SDS011;5402;50.004;8.246;2023-01-26T04:42:18;6.70;;;4.43;;
10701;SDS011;5402;50.004;8.246;2023-01-26T04:44:44;6.07;;;3.73;;
10701;SDS011;5402;50.004;8.246;2023-01-26T04:47:11;6.90;;;4.47;;
10701;SDS011;5402;50.004;8.246;2023-01-26T04:49:38;7.40;;;4.30;;
10701;SDS011;5402;50.004;8.246;2023-01-26T04:52:06;8.47;;;4.60;;
10701;SDS011;5402;50.004;8.246;2023-01-26T04:54:33;6.37;;;4.10;;
10701;SDS011;5402;50.004;8.246;2023-01-26T04:56:59;6.13;;;4.23;;
10701;SDS011;5402;50.004;8.246;2023-01-26T04:59:26;6.17;;;3.90;;
10701;SDS011;5402;50.004;8.246;2023-01-26T05:01:53;6.73;;;3.77;;
10701;SDS011;5402;50.004;8.246;2023-01-26T05:04:20;7.53;;;4.37;;
10701;SDS011;5402;50.004;8.246;2023-01-26T05:06:47;8.63;;;4.37;;
10701;SDS011;5402;50.004;8.246;2023-01-26T05:09:15;6.70;;;4.37;;
10701;SDS011;5402;50.004;8.246;2023-01-26T05:11:42;7.47;;;4.63;;
10701;SDS011;5402;50.004;8.246;2023-01-26T05:14:08;8.10;;;4.27;;
10701;SDS011;5402;50.004;8.246;2023-01-26T05:16:35;6.30;;;3.33;;
10701;SDS011;5402;50.004;8.246;2023-01-26T05:19:02;6.07;;;4.13;;
10701;SDS011;5402;50.004;8.246;2023-01-26T05:21:29;5.93;;;4.07;;
10701;SDS011;5402;50.004;8.246;2023-01-26T05:23:55;5.87;;;4.30;;
10701;SDS011;5402;50.004;8.246;2023-01-26T05:26:23;6.37;;;4.07;;
10701;SDS011;5402;50.004;8.246;2023-01-26T05:28:50;7.10;;;4.40;;
10701;SDS011;5402;50.004;8.246;2023-01-26T05:31:17;7.27;;;3.90;;
10701;SDS011;5402;50.004;8.246;2023-01-26T05:33:44;7.77;;;4.37;;
10701;SDS011;5402;50.004;8.246;2023-01-26T05:36:10;6.43;;;4.20;;
10701;SDS011;5402;50.004;8.246;2023-01-26T05:38:37;7.77;;;4.23;;
10701;SDS011;5402;50.004;8.246;2023-01-26T05:41:05;7.33;;;5.03;;
10701;SDS011;5402;50.004;8.246;2023-01-26T05:43:34;8.37;;;4.70;;
10701;SDS011;5402;50.004;8.246;2023-01-26T05:46:00;6.60;;;4.40;;
10701;SDS011;5402;50.004;8.246;2023-01-26T05:48:27;8.50;;;5.10;;
10701;SDS011;5402;50.004;8.246;2023-01-26T05:50:54;8.40;;;4.40;;
10701;SDS011;5402;50.004;8.246;2023-01-26T05:53:22;5.80;;;4.13;;
10701;SDS011;5402;50.004;8.246;2023-01-26T05:55:49;7.60;;;4.73;;
10701;SDS011;5402;50.004;8.246;2023-01-26T05:58:16;8.37;;;4.60;;
10701;SDS011;5402;50.004;8.246;2023-01-26T06:00:44;7.07;;;4.10;;
10701;SDS011;5402;50.004;8.246;2023-01-26T06:03:11;6.20;;;4.37;;
10701;SDS011;5402;50.004;8.246;2023-01-26T06:05:37;8.47;;;4.57;;
10701;SDS011;5402;50.004;8.246;2023-01-26T06:08:04;7.93;;;4.67;;
10701;SDS011;5402;50.004;8.246;2023-01-26T06:10:31;6.23;;;3.90;;
10701;SDS011;5402;50.004;8.246;2023-01-26T06:12:58;8.13;;;4.93;;
10701;SDS011;5402;50.004;8.246;2023-01-26T06:15:25;8.20;;;4.97;;
10701;SDS011;5402;50.004;8.246;2023-01-26T06:17:54;9.03;;;5.67;;
10701;SDS011;5402;50.004;8.246;2023-01-26T06:20:20;6.70;;;4.70;;
10701;SDS011;5402;50.004;8.246;2023-01-26T06:22:47;10.23;;;5.60;;
10701;SDS011;5402;50.004;8.246;2023-01-26T06:25:14;9.10;;;5.40;;
10701;SDS011;5402;50.004;8.246;2023-01-26T06:27:40;9.97;;;5.30;;
10701;SDS011;5402;50.004;8.246;2023-01-26T06:30:08;8.90;;;5.20;;
10701;SDS011;5402;50.004;8.246;2023-01-26T06:32:35;9.03;;;4.93;;
10701;SDS011;5402;50.004;8.246;2023-01-26T06:35:04;8.70;;;4.80;;
10701;SDS011;5402;50.004;8.246;2023-01-26T06:37:32;8.77;;;5.43;;
10701;SDS011;5402;50.004;8.246;2023-01-26T06:39:59;7.70;;;4.90;;
10701;SDS011;5402;50.004;8.246;2023-01-26T06:42:26;7.17;;;4.90;;
10701;SDS011;5402;50.004;8.246;2023-01-26T06:44:53;8.80;;;5.40;;
10701;SDS011;5402;50.004;8.246;2023-01-26T06:47:21;9.10;;;5.67;;
10701;SDS011;5402;50.004;8.246;2023-01-26T06:49:48;6.60;;;4.60;;
10701;SDS011;5402;50.004;8.246;2023-01-26T06:52:24;9.43;;;5.23;;
10701;SDS011;5402;50.004;8.246;2023-01-26T06:54:52;7.60;;;5.63;;
10701;SDS011;5402;50.004;8.246;2023-01-26T06:57:20;9.23;;;5.50;;
10701;SDS011;5402;50.004;8.246;2023-01-26T06:59:47;9.33;;;6.03;;
10701;SDS011;5402;50.004;8.246;2023-01-26T07:02:15;9.13;;;5.37;;
10701;SDS011;5402;50.004;8.246;2023-01-26T07:04:45;9.23;;;5.27;;
10701;SDS011;5402;50.004;8.246;2023-01-26T07:07:13;8.30;;;5.10;;
10701;SDS011;5402;50.004;8.246;2023-01-26T07:09:42;9.60;;;5.20;;
10701;SDS011;5402;50.004;8.246;2023-01-26T07:12:08;9.03;;;5.47;;
10701;SDS011;5402;50.004;8.246;2023-01-26T07:14:35;7.57;;;4.80;;
10701;SDS011;5402;50.004;8.246;2023-01-26T07:17:02;6.80;;;4.57;;
10701;SDS011;5402;50.004;8.246;2023-01-26T07:19:28;7.70;;;4.90;;
10701;SDS011;5402;50.004;8.246;2023-01-26T07:21:57;8.80;;;4.90;;
10701;SDS011;5402;50.004;8.246;2023-01-26T07:24:24;7.10;;;4.73;;
10701;SDS011;5402;50.004;8.246;2023-01-26T07:26:52;8.00;;;4.80;;
10701;SDS011;5402;50.004;8.246;2023-01-26T07:29:18;7.73;;;4.63;;
10701;SDS011;5402;50.004;8.246;2023-01-26T07:31:45;8.80;;;4.77;;
10701;SDS011;5402;50.004;8.246;2023-01-26T07:34:12;7.93;;;5.27;;
10701;SDS011;5402;50.004;8.246;2023-01-26T07:36:39;7.47;;;4.27;;
10701;SDS011;5402;50.004;8.246;2023-01-26T07:39:05;8.63;;;4.60;;
10701;SDS011;5402;50.004;8.246;2023-01-26T07:41:32;7.60;;;4.93;;
10701;SDS011;5402;50.004;8.246;2023-01-26T07:44:00;6.13;;;3.93;;
10701;SDS011;5402;50.004;8.246;2023-01-26T07:46:28;6.57;;;3.77;;
10701;SDS011;5402;50.004;8.246;2023-01-26T07:48:55;6.67;;;3.77;;
10701;SDS011;5402;50.004;8.246;2023-01-26T07:51:22;9.67;;;5.30;;
10701;SDS011;5402;50.004;8.246;2023-01-26T07:53:49;8.13;;;4.67;;
10701;SDS011;5402;50.004;8.246;2023-01-26T07:56:16;11.40;;;5.07;;
10701;SDS011;5402;50.004;8.246;2023-01-26T07:58:49;9.00;;;5.53;;
10701;SDS011;5402;50.004;8.246;2023-01-26T08:01:17;12.93;;;6.47;;
10701;SDS011;5402;50.004;8.246;2023-01-26T08:03:44;8.97;;;5.63;;
10701;SDS011;5402;50.004;8.246;2023-01-26T08:06:11;11.07;;;6.40;;
10701;SDS011;5402;50.004;8.246;2023-01-26T08:08:38;10.57;;;6.03;;
10701;SDS011;5402;50.004;8.246;2023-01-26T08:11:06;9.93;;;6.40;;
10701;SDS011;5402;50.004;8.246;2023-01-26T08:13:33;10.10;;;5.27;;
10701;SDS011;5402;50.004;8.246;2023-01-26T08:16:01;10.33;;;6.03;;
10701;SDS011;5402;50.004;8.246;2023-01-26T08:18:30;11.50;;;6.80;;
10701;SDS011;5402;50.004;8.246;2023-01-26T08:20:57;10.97;;;5.77;;
10701;SDS011;5402;50.004;8.246;2023-01-26T08:23:24;8.63;;;5.33;;
10701;SDS011;5402;50.004;8.246;2023-01-26T08:25:51;11.63;;;6.23;;
10701;SDS011;5402;50.004;8.246;2023-01-26T08:28:18;11.23;;;6.33;;
10701;SDS011;5402;50.004;8.246;2023-01-26T08:30:45;11.37;;;6.17;;
10701;SDS011;5402;50.004;8.246;2023-01-26T08:33:11;9.40;;;5.67;;
10701;SDS011;5402;50.004;8.246;2023-01-26T08:35:39;11.30;;;5.77;;
10701;SDS011;5402;50.004;8.246;2023-01-26T08:38:06;9.93;;;5.97;;
10701;SDS011;5402;50.004;8.246;2023-01-26T08:40:33;12.77;;;6.27;;
10701;SDS011;5402;50.004;8.246;2023-01-26T08:43:00;12.83;;;6.30;;
10701;SDS011;5402;50.004;8.246;2023-01-26T08:45:27;13.13;;;5.90;;
10701;SDS011;5402;50.004;8.246;2023-01-26T08:47:55;12.43;;;6.67;;
10701;SDS011;5402;50.004;8.246;2023-01-26T08:50:21;13.47;;;6.80;;
10701;SDS011;5402;50.004;8.246;2023-01-26T08:52:50;11.53;;;6.37;;
10701;SDS011;5402;50.004;8.246;2023-01-26T08:55:20;14.17;;;7.10;;
10701;SDS011;5402;50.004;8.246;2023-01-26T08:57:50;13.77;;;6.90;;
10701;SDS011;5402;50.004;8.246;2023-01-26T09:00:19;14.13;;;7.33;;
10701;SDS011;5402;50.004;8.246;2023-01-26T09:02:46;12.13;;;6.97;;
10701;SDS011;5402;50.004;8.246;2023-01-26T09:05:14;17.47;;;7.30;;
10701;SDS011;5402;50.004;8.246;2023-01-26T09:07:43;13.27;;;6.73;;
10701;SDS011;5402;50.004;8.246;2023-01-26T09:10:11;17.70;;;7.43;;
10701;SDS011;5402;50.004;8.246;2023-01-26T09:12:38;14.93;;;7.77;;
10701;SDS011;5402;50.004;8.246;2023-01-26T09:15:05;15.33;;;8.23;;
10701;SDS011;5402;50.004;8.246;2023-01-26T09:17:33;15.47;;;8.27;;
10701;SDS011;5402;50.004;8.246;2023-01-26T09:20:00;18.13;;;8.03;;
10701;SDS011;5402;50.004;8.246;2023-01-26T09:22:27;14.93;;;7.43;;
10701;SDS011;5402;50.004;8.246;2023-01-26T09:24:54;15.13;;;7.30;;
10701;SDS011;5402;50.004;8.246;2023-01-26T09:27:22;15.63;;;8.13;;
10701;SDS011;5402;50.004;8.246;2023-01-26T09:29:49;11.87;;;7.00;;
10701;SDS011;5402;50.004;8.246;2023-01-26T09:32:16;14.73;;;7.60;;
10701;SDS011;5402;50.004;8.246;2023-01-26T09:34:43;15.63;;;7.73;;
10701;SDS011;5402;50.004;8.246;2023-01-26T09:37:10;18.23;;;8.53;;
10701;SDS011;5402;50.004;8.246;2023-01-26T09:39:37;13.73;;;7.20;;
10701;SDS011;5402;50.004;8.246;2023-01-26T09:42:09;17.93;;;6.90;;
10701;SDS011;5402;50.004;8.246;2023-01-26T09:44:58;15.03;;;8.03;;
10701;SDS011;5402;50.004;8.246;2023-01-26T09:47:35;17.07;;;8.57;;
10701;SDS011;5402;50.004;8.246;2023-01-26T09:50:14;17.13;;;7.20;;
10701;SDS011;5402;50.004;8.246;2023-01-26T09:52:48;14.83;;;6.77;;
10701;SDS011;5402;50.004;8.246;2023-01-26T09:55:20;13.40;;;6.43;;
10701;SDS011;5402;50.004;8.246;2023-01-26T09:57:51;15.60;;;7.13;;
10701;SDS011;5402;50.004;8.246;2023-01-26T10:00:23;12.90;;;6.83;;
10701;SDS011;5402;50.004;8.246;2023-01-26T10:02:56;17.60;;;7.77;;
10701;SDS011;5402;50.004;8.246;2023-01-26T10:05:37;12.77;;;7.00;;
10701;SDS011;5402;50.004;8.246;2023-01-26T10:08:10;16.63;;;7.20;;
10701;SDS011;5402;50.004;8.246;2023-01-26T10:10:40;15.37;;;7.10;;
10701;SDS011;5402;50.004;8.246;2023-01-26T10:13:12;16.43;;;6.83;;
10701;SDS011;5402;50.004;8.246;2023-01-26T10:15:41;16.43;;;7.03;;
10701;SDS011;5402;50.004;8.246;2023-01-26T10:18:12;16.77;;;7.07;;
10701;SDS011;5402;50.004;8.246;2023-01-26T10:20:44;38.13;;;9.23;;
10701;SDS011;5402;50.004;8.246;2023-01-26T10:23:15;14.73;;;7.73;;
10701;SDS011;5402;50.004;8.246;2023-01-26T10:25:44;14.97;;;7.70;;
10701;SDS011;5402;50.004;8.246;2023-01-26T10:28:14;13.93;;;6.53;;
10701;SDS011;5402;50.004;8.246;2023-01-26T10:30:43;19.10;;;7.73;;
10701;SDS011;5402;50.004;8.246;2023-01-26T10:33:13;12.57;;;6.40;;
10701;SDS011;5402;50.004;8.246;2023-01-26T10:35:43;13.73;;;7.03;;
10701;SDS011;5402;50.004;8.246;2023-01-26T10:38:25;15.37;;;6.63;;
10701;SDS011;5402;50.004;8.246;2023-01-26T10:41:03;13.23;;;7.30;;
10701;SDS011;5402;50.004;8.246;2023-01-26T10:43:34;15.90;;;7.90;;
10701;SDS011;5402;50.004;8.246;2023-01-26T10:46:05;16.23;;;6.93;;
10701;SDS011;5402;50.004;8.246;2023-01-26T10:48:32;17.97;;;7.50;;
10701;SDS011;5402;50.004;8.246;2023-01-26T10:51:12;14.65;;;6.50;;
10701;SDS011;5402;50.004;8.246;2023-01-26T10:53:40;15.63;;;7.63;;
10701;SDS011;5402;50.004;8.246;2023-01-26T10:56:10;15.60;;;7.80;;
10701;SDS011;5402;50.004;8.246;2023-01-26T10:58:43;14.27;;;7.73;;
10701;SDS011;5402;50.004;8.246;2023-01-26T11:01:12;17.03;;;6.80;;
10701;SDS011;5402;50.004;8.246;2023-01-26T11:03:42;16.50;;;7.47;;
10701;SDS011;5402;50.004;8.246;2023-01-26T11:06:26;15.30;;;7.17;;
10701;SDS011;5402;50.004;8.246;2023-01-26T11:09:06;14.83;;;7.30;;
10701;SDS011;5402;50.004;8.246;2023-01-26T11:11:34;14.17;;;6.90;;
10701;SDS011;5402;50.004;8.246;2023-01-26T11:14:10;15.33;;;6.13;;
10701;SDS011;5402;50.004;8.246;2023-01-26T11:16:39;15.63;;;6.87;;
10701;SDS011;5402;50.004;8.246;2023-01-26T11:19:11;13.53;;;7.23;;
10701;SDS011;5402;50.004;8.246;2023-01-26T11:21:40;15.40;;;6.50;;
10701;SDS011;5402;50.004;8.246;2023-01-26T11:24:13;12.40;;;6.00;;
10701;SDS011;5402;50.004;8.246;2023-01-26T11:29:48;12.47;;;5.70;;
10701;SDS011;5402;50.004;8.246;2023-01-26T11:32:33;11.70;;;5.87;;
10701;SDS011;5402;50.004;8.246;2023-01-26T11:35:08;14.00;;;6.93;;
10701;SDS011;5402;50.004;8.246;2023-01-26T11:37:42;13.10;;;6.80;;
10701;SDS011;5402;50.004;8.246;2023-01-26T11:40:19;12.23;;;6.10;;
10701;SDS011;5402;50.004;8.246;2023-01-26T11:42:56;10.57;;;5.70;;
10701;SDS011;5402;50.004;8.246;2023-01-26T11:45:43;13.10;;;5.80;;
10701;SDS011;5402;50.004;8.246;2023-01-26T11:48:24;13.80;;;6.63;;
10701;SDS011;5402;50.004;8.246;2023-01-26T11:51:01;11.83;;;6.60;;
10701;SDS011;5402;50.004;8.246;2023-01-26T11:53:38;11.27;;;5.63;;
10701;SDS011;5402;50.004;8.246;2023-01-26T11:56:24;9.73;;;5.43;;
10701;SDS011;5402;50.004;8.246;2023-01-26T11:59:01;9.30;;;5.30;;
10701;SDS011;5402;50.004;8.246;2023-01-26T12:01:37;10.27;;;5.57;;
10701;SDS011;5402;50.004;8.246;2023-01-26T12:04:08;8.73;;;5.43;;
10701;SDS011;5402;50.004;8.246;2023-01-26T12:06:43;10.63;;;5.70;;
10701;SDS011;5402;50.004;8.246;2023-01-26T12:09:13;9.03;;;5.00;;
10701;SDS011;5402;50.004;8.246;2023-01-26T12:11:45;8.00;;;5.27;;
10701;SDS011;5402;50.004;8.246;2023-01-26T12:14:18;7.10;;;4.97;;
10701;SDS011;5402;50.004;8.246;2023-01-26T12:16:56;7.50;;;5.00;;
10701;SDS011;5402;50.004;8.246;2023-01-26T12:19:38;9.77;;;4.80;;
10701;SDS011;5402;50.004;8.246;2023-01-26T12:22:12;8.17;;;5.43;;
10701;SDS011;5402;50.004;8.246;2023-01-26T12:24:46;9.13;;;5.70;;
10701;SDS011;5402;50.004;8.246;2023-01-26T12:27:18;9.27;;;5.73;;
10701;SDS011;5402;50.004;8.246;2023-01-26T12:29:50;11.10;;;6.70;;
10701;SDS011;5402;50.004;8.246;2023-01-26T12:32:23;8.57;;;5.37;;
10701;SDS011;5402;50.004;8.246;2023-01-26T12:34:49;23.50;;;6.83;;
10701;SDS011;5402;50.004;8.246;2023-01-26T12:37:24;9.30;;;5.77;;
10701;SDS011;5402;50.004;8.246;2023-01-26T12:40:14;8.53;;;5.33;;
10701;SDS011;5402;50.004;8.246;2023-01-26T12:42:55;7.63;;;4.83;;
10701;SDS011;5402;50.004;8.246;2023-01-26T12:45:29;8.17;;;5.30;;
10701;SDS011;5402;50.004;8.246;2023-01-26T12:48:01;10.33;;;5.97;;
10701;SDS011;5402;50.004;8.246;2023-01-26T12:50:37;8.07;;;5.23;;
10701;SDS011;5402;50.004;8.246;2023-01-26T12:53:07;7.87;;;5.00;;
10701;SDS011;5402;50.004;8.246;2023-01-26T12:55:40;7.60;;;4.93;;
10701;SDS011;5402;50.004;8.246;2023-01-26T12:58:11;10.33;;;5.67;;
10701;SDS011;5402;50.004;8.246;2023-01-26T13:00:49;9.67;;;5.33;;
10701;SDS011;5402;50.004;8.246;2023-01-26T13:03:20;9.23;;;5.77;;
10701;SDS011;5402;50.004;8.246;2023-01-26T13:05:58;9.10;;;5.53;;
10701;SDS011;5402;50.004;8.246;2023-01-26T13:08:38;10.27;;;5.63;;
10701;SDS011;5402;50.004;8.246;2023-01-26T13:14:23;10.60;;;5.90;;
10701;SDS011;5402;50.004;8.246;2023-01-26T13:16:52;9.57;;;5.50;;
10701;SDS011;5402;50.004;8.246;2023-01-26T13:19:47;9.17;;;5.80;;
10701;SDS011;5402;50.004;8.246;2023-01-26T13:22:36;9.77;;;5.70;;
10701;SDS011;5402;50.004;8.246;2023-01-26T13:25:11;10.10;;;5.47;;
10701;SDS011;5402;50.004;8.246;2023-01-26T13:27:43;12.10;;;6.20;;
10701;SDS011;5402;50.004;8.246;2023-01-26T13:33:11;11.17;;;5.67;;
10701;SDS011;5402;50.004;8.246;2023-01-26T13:35:42;10.27;;;5.40;;
10701;SDS011;5402;50.004;8.246;2023-01-26T13:38:13;7.97;;;4.57;;
10701;SDS011;5402;50.004;8.246;2023-01-26T13:40:58;10.03;;;5.53;;
10701;SDS011;5402;50.004;8.246;2023-01-26T13:43:28;12.40;;;6.47;;
10701;SDS011;5402;50.004;8.246;2023-01-26T13:46:07;10.30;;;5.47;;
10701;SDS011;5402;50.004;8.246;2023-01-26T13:48:42;9.40;;;5.10;;
10701;SDS011;5402;50.004;8.246;2023-01-26T13:51:16;10.17;;;6.00;;
10701;SDS011;5402;50.004;8.246;2023-01-26T13:53:49;10.03;;;4.97;;
10701;SDS011;5402;50.004;8.246;2023-01-26T13:56:23;9.87;;;5.40;;
10701;SDS011;5402;50.004;8.246;2023-01-26T13:58:53;8.00;;;4.90;;
10701;SDS011;5402;50.004;8.246;2023-01-26T14:01:28;10.00;;;4.80;;
10701;SDS011;5402;50.004;8.246;2023-01-26T14:04:00;9.33;;;4.93;;
10701;SDS011;5402;50.004;8.246;2023-01-26T14:06:30;12.20;;;4.83;;
10701;SDS011;5402;50.004;8.246;2023-01-26T14:08:58;8.20;;;5.00;;
10701;SDS011;5402;50.004;8.246;2023-01-26T14:11:25;10.10;;;5.53;;
10701;SDS011;5402;50.004;8.246;2023-01-26T14:13:55;10.53;;;5.40;;
10701;SDS011;5402;50.004;8.246;2023-01-26T14:16:27;10.73;;;5.57;;
10701;SDS011;5402;50.004;8.246;2023-01-26T14:19:02;11.80;;;5.47;;
10701;SDS011;5402;50.004;8.246;2023-01-26T14:21:32;8.93;;;5.10;;
10701;SDS011;5402;50.004;8.246;2023-01-26T14:24:11;7.80;;;4.83;;
10701;SDS011;5402;50.004;8.246;2023-01-26T14:26:38;9.43;;;5.83;;
10701;SDS011;5402;50.004;8.246;2023-01-26T14:29:09;11.97;;;5.83;;
10701;SDS011;5402;50.004;8.246;2023-01-26T14:31:37;10.13;;;5.60;;
10701;SDS011;5402;50.004;8.246;2023-01-26T14:34:07;12.13;;;5.80;;
10701;SDS011;5402;50.004;8.246;2023-01-26T14:36:36;9.00;;;5.40;;
10701;SDS011;5402;50.004;8.246;2023-01-26T14:39:10;8.70;;;5.10;;
10701;SDS011;5402;50.004;8.246;2023-01-26T14:41:41;12.07;;;5.90;;
10701;SDS011;5402;50.004;8.246;2023-01-26T14:44:08;9.63;;;5.27;;
10701;SDS011;5402;50.004;8.246;2023-01-26T14:46:36;9.00;;;5.33;;
10701;SDS011;5402;50.004;8.246;2023-01-26T14:49:11;9.20;;;5.27;;
10701;SDS011;5402;50.004;8.246;2023-01-26T14:51:43;9.33;;;5.30;;
10701;SDS011;5402;50.004;8.246;2023-01-26T14:54:13;9.47;;;5.20;;
10701;SDS011;5402;50.004;8.246;2023-01-26T14:56:45;19.00;;;11.37;;
10701;SDS011;5402;50.004;8.246;2023-01-26T14:59:13;17.47;;;9.53;;
10701;SDS011;5402;50.004;8.246;2023-01-26T15:01:45;10.47;;;6.03;;
10701;SDS011;5402;50.004;8.246;2023-01-26T15:04:15;13.13;;;6.57;;
10701;SDS011;5402;50.004;8.246;2023-01-26T15:06:50;15.57;;;7.27;;
10701;SDS011;5402;50.004;8.246;2023-01-26T15:09:19;12.70;;;6.80;;
10701;SDS011;5402;50.004;8.246;2023-01-26T15:11:50;14.97;;;6.33;;
10701;SDS011;5402;50.004;8.246;2023-01-26T15:14:37;15.33;;;7.37;;
10701;SDS011;5402;50.004;8.246;2023-01-26T15:17:25;13.37;;;6.47;;
10701;SDS011;5402;50.004;8.246;2023-01-26T15:19:53;14.83;;;7.00;;
10701;SDS011;5402;50.004;8.246;2023-01-26T15:22:22;12.30;;;6.43;;
10701;SDS011;5402;50.004;8.246;2023-01-26T15:25:01;17.00;;;7.00;;